Bannock, Ohio
Current Conditions -  °F | °C
As of 5:53 AM on Wednesday 22 Oct 2014 (Local Time) from KHLG Reporting Station
Overcast Overcast  
Wind Chill: 41°   Ceiling: 1200
Heat Index: 47°   Visibility: 10mi
Dew Point: 43°   Wind: 14mph
Humidity: 86%   Direction: 340°NNW
Pressure: 30.09"   Gusts: 22mph
Location:  40.1°N, 80.98°W
Report Text: KHLG 220953Z AUTO 34012G19KT 10SM OVC012 08/06 A3009 RMK AO2 SLP197 T00830061
Loading
Personal Weather Stations






























Interactive Weather Map
Tropical Storm Tracking
New forecast layout! Learn more

10-Day Weather Forecast

Advertisements
Track Severe Weather on mobile